Time;durP1;ratioP1;P1;durP2;ratioP2;P2;SDS_P1;SDS_P2;PMS_P1;PMS_P2;Temp;Humidity;BMP_temperature;BMP_pressure;BME280_temperature;BME280_humidity;BME280_pressure;Samples;Min_cycle;Max_cycle;Signal;HPM_P1;HPM_P2
2022/03/03 00:01:44;;;;;;;15.68;11.30;;;8.30;46.00;;;;;;5047684;28;20348;-61
2022/03/03 00:04:11;;;;;;;16.52;11.35;;;8.20;45.90;;;;;;5047447;28;20033;-62
2022/03/03 00:06:37;;;;;;;14.88;10.95;;;8.20;46.20;;;;;;5052082;28;20032;-62
2022/03/03 00:09:04;;;;;;;18.15;12.05;;;8.20;46.00;;;;;;5050569;28;20026;-65
2022/03/03 00:11:30;;;;;;;15.52;11.43;;;8.10;46.10;;;;;;5048288;28;20033;-62
2022/03/03 00:13:57;;;;;;;18.73;12.10;;;8.10;46.20;;;;;;5051328;28;20037;-65
2022/03/03 00:16:23;;;;;;;17.77;12.00;;;8.10;46.20;;;;;;5050749;28;20047;-65
2022/03/03 00:18:49;;;;;;;18.92;12.50;;;8.00;46.20;;;;;;5047270;28;20035;-65
2022/03/03 00:21:15;;;;;;;16.08;11.57;;;8.00;46.20;;;;;;5048947;28;20037;-65
2022/03/03 00:23:40;;;;;;;16.63;11.65;;;8.00;46.50;;;;;;5049074;28;20108;-65
2022/03/03 00:26:06;;;;;;;20.65;12.30;;;8.00;46.60;;;;;;5044749;28;20032;-62
2022/03/03 00:28:32;;;;;;;16.80;11.55;;;8.00;46.60;;;;;;5047402;28;20036;-63
2022/03/03 00:30:58;;;;;;;16.50;11.50;;;8.00;46.60;;;;;;5047051;28;20491;-66
2022/03/03 00:33:23;;;;;;;16.73;11.82;;;7.90;46.60;;;;;;5047663;28;20063;-66
2022/03/03 00:35:49;;;;;;;16.42;12.40;;;7.90;46.70;;;;;;5031992;28;20040;-66
2022/03/03 00:38:16;;;;;;;18.23;11.57;;;7.80;46.60;;;;;;5050379;28;20041;-62
2022/03/03 00:40:41;;;;;;;18.88;12.55;;;7.80;46.90;;;;;;5050005;28;20123;-62
2022/03/03 00:43:08;;;;;;;16.92;11.77;;;7.80;47.10;;;;;;5047672;28;20449;-62
2022/03/03 00:45:34;;;;;;;22.20;12.32;;;7.70;47.10;;;;;;5045932;28;20021;-63
2022/03/03 00:48:00;;;;;;;18.50;12.25;;;7.70;47.30;;;;;;5044931;28;20113;-66
2022/03/03 00:50:27;;;;;;;18.23;12.82;;;7.70;47.40;;;;;;5049832;28;20043;-66
2022/03/03 00:52:52;;;;;;;18.83;12.95;;;7.60;47.50;;;;;;5047899;28;20036;-63
2022/03/03 00:55:18;;;;;;;24.17;12.35;;;7.60;47.70;;;;;;5061562;28;20037;-62
2022/03/03 00:57:44;;;;;;;22.13;13.48;;;7.50;47.60;;;;;;5049448;28;20076;-62
2022/03/03 01:00:10;;;;;;;21.08;12.93;;;7.50;47.90;;;;;;5050436;28;20035;-65
2022/03/03 01:02:36;;;;;;;15.98;10.90;;;7.50;48.00;;;;;;5048198;28;20056;-65
2022/03/03 01:05:03;;;;;;;17.45;12.20;;;7.50;48.40;;;;;;5037026;28;20037;-62
2022/03/03 01:07:29;;;;;;;18.73;12.93;;;7.40;47.90;;;;;;5042006;28;20546;-62
2022/03/03 01:09:55;;;;;;;17.83;11.88;;;7.40;48.20;;;;;;5047489;28;20041;-65
2022/03/03 01:12:21;;;;;;;17.65;12.18;;;7.30;48.10;;;;;;5046776;28;20045;-66
2022/03/03 01:14:47;;;;;;;18.13;12.90;;;7.30;48.10;;;;;;5047373;28;20042;-62
2022/03/03 01:17:13;;;;;;;18.83;12.60;;;7.30;48.20;;;;;;5047250;28;20034;-62
2022/03/03 01:19:40;;;;;;;19.45;12.77;;;7.20;48.20;;;;;;5043421;28;20388;-62
2022/03/03 01:22:06;;;;;;;21.20;13.57;;;7.20;48.20;;;;;;5031072;28;20235;-62
2022/03/03 01:24:32;;;;;;;19.92;12.35;;;7.20;48.40;;;;;;5037585;28;20491;-65
2022/03/03 01:26:58;;;;;;;17.13;12.20;;;7.10;48.40;;;;;;5035073;28;20037;-65
2022/03/03 01:29:24;;;;;;;19.27;12.10;;;7.10;48.60;;;;;;5041088;28;20059;-61
2022/03/03 01:31:50;;;;;;;18.15;11.90;;;7.10;48.70;;;;;;5035614;28;20352;-64
2022/03/03 01:34:15;;;;;;;19.50;13.25;;;7.10;48.80;;;;;;5041758;28;20029;-61
2022/03/03 01:36:43;;;;;;;18.73;12.30;;;7.10;49.20;;;;;;5043241;28;20674;-62
2022/03/03 01:39:09;;;;;;;17.50;12.63;;;7.00;48.90;;;;;;5032132;28;20053;-61
2022/03/03 01:41:35;;;;;;;18.38;11.95;;;7.00;49.10;;;;;;5040953;28;20025;-65
2022/03/03 01:44:02;;;;;;;17.85;12.48;;;7.00;49.00;;;;;;5034059;28;20064;-64
2022/03/03 01:46:27;;;;;;;18.65;12.90;;;7.00;49.10;;;;;;5044187;28;20018;-65
2022/03/03 01:48:53;;;;;;;23.83;13.00;;;6.90;49.00;;;;;;5046362;28;20026;-65
2022/03/03 01:51:19;;;;;;;18.20;11.90;;;6.90;49.30;;;;;;5030249;28;20459;-65
2022/03/03 01:53:45;;;;;;;17.77;12.70;;;6.90;49.40;;;;;;5039521;28;20033;-61
2022/03/03 01:56:11;;;;;;;19.67;12.38;;;6.80;49.50;;;;;;5057891;28;20440;-62
2022/03/03 01:58:38;;;;;;;23.35;13.23;;;6.80;49.50;;;;;;5039891;28;20041;-62
2022/03/03 02:01:04;;;;;;;18.52;12.95;;;6.80;49.50;;;;;;5041986;28;20029;-62
2022/03/03 02:03:30;;;;;;;18.20;12.73;;;6.70;49.60;;;;;;5048006;28;20160;-62
2022/03/03 02:05:56;;;;;;;19.20;12.90;;;6.70;49.70;;;;;;5035868;28;20112;-65
2022/03/03 02:08:23;;;;;;;19.83;13.23;;;6.70;49.80;;;;;;5040758;28;20114;-65
2022/03/03 02:10:50;;;;;;;18.52;13.25;;;6.60;50.10;;;;;;5046863;28;20052;-65
2022/03/03 02:13:16;;;;;;;22.48;14.15;;;6.60;50.30;;;;;;5044868;28;20125;-65
2022/03/03 02:15:50;;;;;;;19.10;13.30;;;6.60;50.40;;;;;;5030570;28;20057;-65
2022/03/03 02:18:16;;;;;;;18.88;13.52;;;6.50;50.60;;;;;;5036314;28;20033;-65
2022/03/03 02:20:42;;;;;;;19.58;13.77;;;6.50;50.60;;;;;;5047358;28;20043;-62
2022/03/03 02:23:07;;;;;;;17.77;13.07;;;6.40;50.90;;;;;;5063147;28;20028;-65
2022/03/03 02:25:33;;;;;;;21.13;14.55;;;6.40;50.90;;;;;;5045144;28;20078;-65
2022/03/03 02:27:59;;;;;;;22.20;13.10;;;6.40;51.00;;;;;;5037523;28;20025;-62
2022/03/03 02:30:25;;;;;;;20.17;14.43;;;6.30;50.80;;;;;;5040595;28;20064;-62
2022/03/03 02:32:50;;;;;;;20.02;13.43;;;6.30;51.00;;;;;;5041176;28;20547;-61
2022/03/03 02:35:16;;;;;;;18.45;12.35;;;6.20;51.20;;;;;;5031487;28;20041;-61
2022/03/03 02:37:45;;;;;;;20.90;13.02;;;6.20;51.40;;;;;;5044444;28;20029;-61
2022/03/03 02:40:20;;;;;;;19.40;13.25;;;6.20;51.60;;;;;;5042328;28;20056;-61
2022/03/03 02:42:50;;;;;;;20.58;13.30;;;6.10;51.70;;;;;;5046365;28;20416;-61
2022/03/03 02:45:16;;;;;;;18.23;13.77;;;6.10;51.90;;;;;;5035047;28;20107;-61
2022/03/03 02:47:45;;;;;;;21.20;14.05;;;6.00;52.20;;;;;;5048439;28;20372;-61
2022/03/03 02:50:12;;;;;;;22.38;14.05;;;5.90;52.30;;;;;;5034253;28;20040;-61
2022/03/03 02:52:38;;;;;;;19.38;13.25;;;5.90;52.50;;;;;;5041128;28;20028;-61
2022/03/03 02:55:05;;;;;;;19.58;13.35;;;5.80;52.70;;;;;;5045726;28;20396;-65
2022/03/03 03:00:16;;;;;;;20.52;13.75;;;5.70;53.10;;;;;;5057992;28;20040;-62
2022/03/03 03:02:42;;;;;;;19.65;13.45;;;5.70;53.10;;;;;;5045546;28;20033;-62
2022/03/03 03:05:08;;;;;;;21.25;14.38;;;5.60;53.20;;;;;;5049039;28;20074;-61
2022/03/03 03:07:34;;;;;;;20.70;13.73;;;5.60;53.40;;;;;;5039281;28;21360;-65
2022/03/03 03:10:00;;;;;;;19.73;13.07;;;5.50;53.50;;;;;;5047813;28;20116;-61
2022/03/03 03:12:26;;;;;;;21.23;14.02;;;5.50;53.70;;;;;;5038792;28;20054;-62
2022/03/03 03:14:51;;;;;;;21.92;14.45;;;5.50;53.70;;;;;;5043493;28;20057;-61
2022/03/03 03:17:17;;;;;;;21.08;13.65;;;5.40;53.80;;;;;;5039952;28;20029;-61
2022/03/03 03:19:43;;;;;;;21.25;14.02;;;5.40;53.90;;;;;;5048741;28;20474;-61
2022/03/03 03:22:08;;;;;;;20.40;14.38;;;5.40;54.00;;;;;;5033059;28;20033;-65
2022/03/03 03:24:34;;;;;;;20.90;14.05;;;5.40;54.10;;;;;;5041931;28;20048;-65
2022/03/03 03:27:00;;;;;;;19.40;13.50;;;5.30;54.10;;;;;;5051745;28;20036;-65
2022/03/03 03:29:25;;;;;;;20.23;13.77;;;5.30;54.30;;;;;;5050410;28;20328;-65
2022/03/03 03:31:51;;;;;;;23.85;15.05;;;5.30;54.30;;;;;;5048035;28;20061;-65
2022/03/03 03:34:17;;;;;;;21.83;14.50;;;5.20;54.60;;;;;;5048055;28;20112;-65
2022/03/03 03:36:42;;;;;;;21.55;14.00;;;5.20;54.80;;;;;;5048410;28;20478;-65
2022/03/03 03:39:08;;;;;;;19.85;13.15;;;5.20;54.80;;;;;;5048307;28;20032;-66
2022/03/03 03:41:34;;;;;;;23.38;14.20;;;5.10;55.00;;;;;;5046252;28;20040;-65
2022/03/03 03:43:59;;;;;;;22.48;14.32;;;5.10;55.00;;;;;;5048885;28;20032;-65
2022/03/03 03:46:25;;;;;;;20.00;13.63;;;5.00;55.20;;;;;;5040662;28;20227;-64
2022/03/03 03:48:51;;;;;;;20.92;14.32;;;5.00;55.40;;;;;;5035468;28;20071;-66
2022/03/03 03:51:16;;;;;;;20.75;13.60;;;5.00;55.50;;;;;;5031336;28;20038;-61
2022/03/03 03:53:42;;;;;;;22.58;13.88;;;4.90;55.50;;;;;;5036816;28;20037;-64
2022/03/03 03:56:08;;;;;;;22.75;14.00;;;4.90;55.80;;;;;;5040213;28;20059;-62
2022/03/03 03:58:34;;;;;;;22.08;14.27;;;4.90;56.80;;;;;;5037181;28;20037;-61
2022/03/03 04:01:00;;;;;;;20.38;13.93;;;4.80;56.20;;;;;;5037558;28;20029;-64
2022/03/03 04:03:25;;;;;;;22.17;14.05;;;4.80;56.40;;;;;;5043608;28;20037;-64
2022/03/03 04:05:51;;;;;;;22.38;14.63;;;4.70;56.50;;;;;;5047657;28;20099;-65
2022/03/03 04:08:18;;;;;;;23.17;13.88;;;4.70;56.70;;;;;;5036104;28;20041;-61
2022/03/03 04:10:44;;;;;;;21.77;13.63;;;4.70;56.80;;;;;;5030759;28;20033;-61
2022/03/03 04:13:10;;;;;;;19.58;13.50;;;4.60;56.80;;;;;;5038683;28;20025;-61
2022/03/03 04:15:36;;;;;;;22.25;14.48;;;4.60;57.00;;;;;;5035379;28;20029;-61
2022/03/03 04:18:02;;;;;;;20.98;13.38;;;4.50;57.20;;;;;;5042475;28;20039;-65
2022/03/03 04:20:28;;;;;;;21.42;14.23;;;4.50;57.20;;;;;;5043056;28;20065;-65
2022/03/03 04:22:54;;;;;;;21.88;14.70;;;4.50;57.30;;;;;;5043129;28;20025;-61
2022/03/03 04:25:19;;;;;;;21.25;14.18;;;4.50;57.50;;;;;;5035331;28;20099;-64
2022/03/03 04:27:45;;;;;;;19.60;13.45;;;4.40;57.60;;;;;;5044837;28;20017;-64
2022/03/03 04:30:12;;;;;;;23.30;15.23;;;4.40;57.80;;;;;;5036373;28;20073;-61
2022/03/03 04:32:38;;;;;;;20.85;13.75;;;4.40;57.80;;;;;;5042805;28;20076;-61
2022/03/03 04:35:05;;;;;;;21.00;14.38;;;4.30;58.00;;;;;;5039023;28;20047;-61
2022/03/03 04:37:31;;;;;;;21.77;13.60;;;4.30;58.00;;;;;;5039925;28;20032;-61
2022/03/03 04:39:57;;;;;;;21.65;13.63;;;4.30;58.00;;;;;;5042157;28;20047;-60
2022/03/03 04:42:22;;;;;;;22.55;14.13;;;4.20;58.00;;;;;;5038975;28;20059;-65
2022/03/03 04:44:48;;;;;;;20.42;14.35;;;4.20;58.30;;;;;;5047768;28;20055;-61
2022/03/03 04:47:14;;;;;;;20.85;14.38;;;4.20;58.50;;;;;;5048466;28;20056;-64
2022/03/03 04:49:40;;;;;;;21.23;14.52;;;4.20;58.60;;;;;;5041592;28;20051;-65
2022/03/03 04:52:06;;;;;;;23.45;14.07;;;4.10;58.80;;;;;;5049599;28;20499;-65
2022/03/03 04:54:32;;;;;;;21.35;14.35;;;4.10;58.80;;;;;;5038827;28;20056;-62
2022/03/03 04:56:58;;;;;;;21.30;14.23;;;4.10;59.00;;;;;;5024232;28;20427;-61
2022/03/03 04:59:24;;;;;;;22.55;14.00;;;4.00;59.10;;;;;;5050724;28;20029;-65
2022/03/03 05:01:51;;;;;;;20.23;13.27;;;4.00;59.20;;;;;;5050628;28;20079;-65
2022/03/03 05:04:19;;;;;;;23.80;13.52;;;4.00;59.40;;;;;;5046584;28;20091;-65
2022/03/03 05:06:46;;;;;;;22.67;14.95;;;4.00;59.40;;;;;;5038154;28;20072;-65
2022/03/03 05:09:12;;;;;;;21.38;13.20;;;3.90;59.50;;;;;;5063000;28;20525;-65
2022/03/03 05:11:38;;;;;;;24.30;14.85;;;3.90;59.60;;;;;;5052146;28;20074;-65
2022/03/03 05:14:05;;;;;;;20.90;14.20;;;3.90;59.70;;;;;;5051497;28;20108;-65
2022/03/03 05:16:30;;;;;;;20.08;13.48;;;3.80;59.60;;;;;;5042981;28;20029;-61
2022/03/03 05:18:56;;;;;;;24.52;13.63;;;3.80;59.70;;;;;;5062427;28;20033;-61
2022/03/03 05:21:22;;;;;;;21.70;13.75;;;3.80;59.70;;;;;;5055297;28;20543;-61
2022/03/03 05:23:48;;;;;;;22.15;13.85;;;3.80;59.80;;;;;;5048658;28;20040;-64
2022/03/03 05:26:13;;;;;;;22.15;14.52;;;3.70;59.90;;;;;;5050292;28;20039;-64
2022/03/03 05:28:39;;;;;;;24.25;14.60;;;3.70;60.10;;;;;;5049079;28;20021;-64
2022/03/03 05:31:05;;;;;;;22.17;14.02;;;3.70;60.10;;;;;;5050819;28;20137;-64
2022/03/03 05:33:33;;;;;;;24.98;14.75;;;3.70;60.10;;;;;;5061755;28;20073;-64
2022/03/03 05:36:05;;;;;;;22.40;14.00;;;3.70;60.30;;;;;;5056360;28;20036;-61
2022/03/03 05:38:32;;;;;;;22.08;14.90;;;3.60;60.20;;;;;;5055590;28;20028;-64
2022/03/03 05:40:59;;;;;;;22.90;14.30;;;3.60;60.40;;;;;;5053280;28;20523;-64
2022/03/03 05:43:25;;;;;;;24.92;14.52;;;3.60;60.70;;;;;;5047532;28;20025;-64
2022/03/03 05:45:52;;;;;;;22.90;14.63;;;3.50;60.60;;;;;;5047122;28;20072;-64
2022/03/03 05:48:19;;;;;;;25.52;15.35;;;3.50;60.70;;;;;;5046782;28;20029;-64
2022/03/03 05:50:45;;;;;;;23.42;13.80;;;3.40;60.70;;;;;;5047222;28;20079;-60
2022/03/03 05:53:11;;;;;;;22.60;15.07;;;3.40;60.80;;;;;;5054931;28;20029;-61
2022/03/03 05:55:43;;;;;;;22.88;14.50;;;3.40;60.90;;;;;;5054612;28;20037;-61
2022/03/03 05:58:15;;;;;;;21.40;13.47;;;3.40;60.90;;;;;;5044912;28;20032;-65
2022/03/03 06:00:44;;;;;;;23.40;14.77;;;3.40;61.00;;;;;;5046409;28;20554;-65
2022/03/03 06:03:13;;;;;;;23.55;14.43;;;3.30;61.10;;;;;;5047976;28;20021;-64
2022/03/03 06:05:42;;;;;;;22.60;13.85;;;3.30;61.10;;;;;;5043337;28;20027;-64
2022/03/03 06:08:15;;;;;;;24.08;13.73;;;3.30;61.20;;;;;;5046413;28;20017;-64
2022/03/03 06:10:49;;;;;;;23.88;13.98;;;3.30;61.30;;;;;;5053472;28;20111;-61
2022/03/03 06:13:28;;;;;;;22.75;13.77;;;3.30;61.40;;;;;;5049612;28;20029;-61
2022/03/03 06:15:54;;;;;;;22.10;14.13;;;3.20;61.30;;;;;;5049378;28;20029;-65
2022/03/03 06:18:27;;;;;;;22.73;14.65;;;3.20;61.30;;;;;;5051087;28;20028;-61
2022/03/03 06:20:54;;;;;;;23.15;14.40;;;3.20;61.30;;;;;;5051323;28;20025;-65
2022/03/03 06:23:21;;;;;;;23.33;14.35;;;3.20;61.60;;;;;;5046844;28;20033;-65
2022/03/03 06:26:11;;;;;;;20.35;13.63;;;3.20;61.60;;;;;;5050981;28;20029;-65
2022/03/03 06:28:37;;;;;;;21.20;13.38;;;3.20;61.70;;;;;;5045032;28;20124;-61
2022/03/03 06:31:04;;;;;;;21.08;13.40;;;3.20;61.90;;;;;;5047804;28;20132;-65
2022/03/03 06:33:30;;;;;;;21.20;14.43;;;3.20;61.90;;;;;;5040907;28;20029;-65
2022/03/03 06:35:55;;;;;;;22.17;14.30;;;3.10;61.90;;;;;;5049114;28;20041;-65
2022/03/03 06:38:22;;;;;;;24.55;14.93;;;3.10;62.00;;;;;;5041603;28;20393;-64
2022/03/03 06:40:48;;;;;;;21.63;14.27;;;3.10;62.10;;;;;;5046344;28;20033;-61
2022/03/03 06:43:14;;;;;;;21.98;14.68;;;3.10;62.20;;;;;;5041080;28;20029;-64
2022/03/03 06:45:39;;;;;;;24.10;14.55;;;3.10;62.30;;;;;;5046237;28;20029;-65
2022/03/03 06:48:05;;;;;;;24.30;14.02;;;3.10;62.20;;;;;;5047867;28;20018;-65
2022/03/03 06:50:36;;;;;;;20.02;13.70;;;3.10;62.30;;;;;;5048871;28;20044;-65
2022/03/03 06:53:03;;;;;;;22.88;14.10;;;3.10;62.40;;;;;;5044207;28;20067;-65
2022/03/03 06:55:30;;;;;;;20.75;13.60;;;3.10;62.50;;;;;;5046768;28;20466;-65
2022/03/03 06:57:58;;;;;;;19.23;13.52;;;3.10;62.60;;;;;;5048380;28;20511;-65
2022/03/03 07:00:27;;;;;;;21.70;13.73;;;3.10;62.70;;;;;;5043974;28;20017;-62
2022/03/03 07:02:53;;;;;;;22.73;14.13;;;3.10;62.80;;;;;;5044400;28;20029;-61
2022/03/03 07:05:21;;;;;;;20.65;14.52;;;3.10;62.90;;;;;;5028231;28;20120;-61
2022/03/03 07:07:48;;;;;;;22.30;13.20;;;3.10;63.00;;;;;;5044393;28;20041;-61
2022/03/03 07:10:19;;;;;;;21.42;13.07;;;3.20;63.00;;;;;;5047831;28;20021;-61
2022/03/03 07:12:45;;;;;;;17.92;12.23;;;3.20;63.00;;;;;;5048507;28;20040;-61
2022/03/03 07:15:11;;;;;;;19.30;12.90;;;3.20;62.90;;;;;;5042831;28;20460;-61
2022/03/03 07:17:45;;;;;;;19.92;12.20;;;3.20;62.80;;;;;;5036328;28;20040;-64
2022/03/03 07:20:23;;;;;;;21.17;12.05;;;3.30;62.80;;;;;;5051026;28;20449;-60
2022/03/03 07:23:03;;;;;;;18.80;11.98;;;3.30;62.60;;;;;;5048830;28;20462;-61
2022/03/03 07:25:43;;;;;;;20.10;12.40;;;3.40;62.50;;;;;;5048656;28;20021;-64
2022/03/03 07:28:11;;;;;;;19.40;11.93;;;3.50;62.50;;;;;;5039909;28;20025;-61
2022/03/03 07:30:41;;;;;;;18.80;12.63;;;3.50;62.40;;;;;;5052849;28;20102;-64
2022/03/03 07:33:11;;;;;;;18.75;11.50;;;3.60;62.40;;;;;;5044762;28;20451;-63
2022/03/03 07:35:57;;;;;;;19.77;12.40;;;3.60;62.10;;;;;;5047208;28;20490;-63
2022/03/03 07:38:37;;;;;;;15.85;10.98;;;3.70;62.00;;;;;;5043845;28;20471;-63
2022/03/03 07:41:03;;;;;;;15.93;10.90;;;3.80;61.80;;;;;;5045825;28;20395;-62
2022/03/03 07:43:29;;;;;;;17.05;10.73;;;3.80;61.40;;;;;;5046598;28;20021;-62
2022/03/03 07:45:55;;;;;;;15.73;10.43;;;3.90;61.40;;;;;;5042563;28;20071;-62
2022/03/03 07:48:24;;;;;;;14.05;9.70;;;4.00;61.40;;;;;;5047156;28;20025;-62
2022/03/03 07:50:50;;;;;;;18.95;11.43;;;4.00;61.00;;;;;;5043976;28;20029;-63
2022/03/03 07:53:16;;;;;;;18.13;12.38;;;4.10;60.90;;;;;;5043809;28;20040;-62
2022/03/03 07:55:47;;;;;;;14.73;10.60;;;4.10;60.80;;;;;;5043888;28;20029;-62
2022/03/03 07:58:21;;;;;;;15.38;11.05;;;4.20;60.70;;;;;;5045847;28;20392;-62
2022/03/03 08:00:53;;;;;;;16.27;10.75;;;4.20;60.60;;;;;;5049436;28;20039;-62
2022/03/03 08:03:20;;;;;;;17.50;11.05;;;4.30;60.40;;;;;;5049173;28;20029;-63
2022/03/03 08:05:50;;;;;;;17.15;11.75;;;4.40;60.40;;;;;;5053640;28;20663;-63
2022/03/03 08:08:20;;;;;;;15.93;11.43;;;4.40;60.20;;;;;;5042142;28;20455;-63
2022/03/03 08:10:46;;;;;;;15.82;10.48;;;4.50;60.10;;;;;;5048761;28;20028;-63
2022/03/03 08:13:14;;;;;;;16.50;11.93;;;4.50;59.80;;;;;;5049702;28;20112;-63
2022/03/03 08:15:45;;;;;;;14.35;10.32;;;4.60;59.70;;;;;;5039738;28;20499;-62
2022/03/03 08:18:11;;;;;;;16.05;10.90;;;4.60;59.50;;;;;;5050812;28;20021;-62
2022/03/03 08:20:38;;;;;;;16.15;10.45;;;4.70;59.40;;;;;;5045604;28;20032;-62
2022/03/03 08:23:06;;;;;;;15.00;11.05;;;4.80;59.20;;;;;;5043635;28;20573;-63
2022/03/03 08:25:33;;;;;;;13.93;10.63;;;4.80;59.00;;;;;;5044918;28;20116;-63
2022/03/03 08:27:59;;;;;;;15.68;10.70;;;4.90;58.90;;;;;;5051131;28;20478;-63
2022/03/03 08:30:25;;;;;;;17.35;10.45;;;5.00;58.70;;;;;;5041701;28;20049;-62
2022/03/03 08:33:16;;;;;;;16.52;11.40;;;5.00;58.50;;;;;;5044322;28;20029;-62
2022/03/03 08:35:48;;;;;;;15.73;10.45;;;5.10;58.40;;;;;;5049264;28;20040;-62
2022/03/03 08:38:21;;;;;;;;;;;5.10;58.30;;;;;;5050081;28;20585;-63
2022/03/03 08:40:48;;;;;;;14.75;10.50;;;5.20;58.30;;;;;;5035075;28;19921;-63
2022/03/03 08:43:20;;;;;;;15.48;10.75;;;5.20;58.00;;;;;;5045003;28;20434;-63
2022/03/03 08:45:48;;;;;;;18.00;12.10;;;5.20;57.60;;;;;;5038455;28;20021;-63
2022/03/03 08:48:15;;;;;;;16.77;11.40;;;5.30;57.40;;;;;;5037038;28;20025;-62
2022/03/03 08:50:42;;;;;;;16.33;10.73;;;5.30;57.40;;;;;;5037546;28;20037;-62
2022/03/03 08:53:09;;;;;;;14.00;9.85;;;5.40;57.40;;;;;;5046143;28;20040;-62
2022/03/03 08:55:37;;;;;;;12.88;9.38;;;5.50;57.40;;;;;;5041159;28;20573;-63
2022/03/03 08:58:03;;;;;;;15.07;10.35;;;5.60;57.10;;;;;;5045341;28;20035;-63
2022/03/03 09:00:30;;;;;;;14.55;10.50;;;5.70;56.90;;;;;;5049016;28;20370;-62
2022/03/03 09:03:00;;;;;;;18.30;10.98;;;5.80;56.80;;;;;;5051668;28;20511;-62
2022/03/03 09:05:26;;;;;;;14.57;10.48;;;5.90;56.50;;;;;;5043909;28;20467;-62
2022/03/03 09:07:52;;;;;;;15.27;10.15;;;6.00;56.30;;;;;;5050126;28;20027;-63
2022/03/03 09:10:18;;;;;;;14.38;10.05;;;6.10;56.10;;;;;;5048957;28;20041;-63
2022/03/03 09:12:44;;;;;;;15.23;10.32;;;6.10;55.80;;;;;;5041215;28;20064;-62
2022/03/03 09:15:11;;;;;;;14.43;10.68;;;6.30;55.70;;;;;;5053242;28;20063;-64
2022/03/03 09:17:37;;;;;;;15.13;10.90;;;6.40;55.40;;;;;;5048373;28;20042;-62
2022/03/03 09:20:08;;;;;;;15.23;10.70;;;6.50;55.00;;;;;;5048614;28;20485;-62
2022/03/03 09:22:35;;;;;;;13.90;10.07;;;6.60;54.60;;;;;;5040995;28;20528;-62
2022/03/03 09:25:01;;;;;;;16.33;11.23;;;6.70;54.30;;;;;;5042916;28;20039;-62
2022/03/03 09:27:27;;;;;;;14.75;10.77;;;6.80;54.10;;;;;;5047323;28;20147;-62
2022/03/03 09:29:53;;;;;;;14.68;10.95;;;6.90;54.10;;;;;;5041406;28;20035;-63
2022/03/03 09:32:19;;;;;;;16.00;10.63;;;7.00;53.90;;;;;;5058650;28;20032;-62
2022/03/03 09:34:45;;;;;;;14.73;11.00;;;7.10;53.70;;;;;;5042681;28;20044;-63
2022/03/03 09:37:14;;;;;;;17.48;10.73;;;7.20;53.40;;;;;;5047869;28;20029;-63
2022/03/03 09:39:41;;;;;;;16.23;11.75;;;7.30;53.40;;;;;;5044138;28;20021;-63
2022/03/03 09:42:08;;;;;;;16.30;12.55;;;7.40;53.20;;;;;;5049853;28;20818;-63
2022/03/03 09:44:34;;;;;;;14.88;11.05;;;7.40;52.90;;;;;;5046553;28;20033;-64
2022/03/03 09:46:59;;;;;;;14.00;10.82;;;7.50;53.20;;;;;;5045578;28;20025;-63
2022/03/03 09:49:25;;;;;;;16.92;12.43;;;7.60;53.00;;;;;;5055282;28;20052;-64
2022/03/03 09:51:51;;;;;;;15.07;11.27;;;7.60;52.70;;;;;;5054353;28;20120;-63
2022/03/03 09:54:18;;;;;;;15.40;11.27;;;7.70;52.80;;;;;;5045630;28;20383;-63
2022/03/03 09:56:45;;;;;;;16.25;11.88;;;7.90;52.60;;;;;;5044303;28;20036;-63
2022/03/03 09:59:12;;;;;;;17.13;12.07;;;8.00;52.50;;;;;;5046227;28;20048;-63
2022/03/03 10:01:37;;;;;;;15.82;10.63;;;8.00;52.10;;;;;;5041871;28;20067;-63
2022/03/03 10:04:23;;;;;;;14.20;10.57;;;8.10;52.30;;;;;;5039346;28;20460;-64
2022/03/03 10:06:50;;;;;;;14.40;10.15;;;8.20;52.20;;;;;;5033682;28;20468;-63
2022/03/03 10:09:17;;;;;;;15.23;10.70;;;8.20;52.00;;;;;;5035635;28;20017;-63
2022/03/03 10:11:48;;;;;;;14.02;10.27;;;8.30;52.10;;;;;;5037672;28;20505;-64
2022/03/03 10:14:31;;;;;;;12.77;10.27;;;8.40;51.90;;;;;;5042650;28;20037;-64
2022/03/03 10:16:57;;;;;;;;;;;8.50;51.70;;;;;;5043298;28;20055;-64
2022/03/03 10:19:22;;;;;;;15.70;11.27;;;8.70;51.10;;;;;;5040120;28;19909;-63
2022/03/03 10:21:49;;;;;;;14.23;11.32;;;8.80;50.60;;;;;;5040507;28;20028;-64
2022/03/03 10:24:24;;;;;;;15.38;10.60;;;8.80;50.60;;;;;;5041169;28;20182;-63
2022/03/03 10:27:01;;;;;;;13.55;10.55;;;8.90;50.30;;;;;;5033520;28;20044;-63
2022/03/03 10:29:29;;;;;;;14.18;10.68;;;9.00;50.30;;;;;;5037076;28;20052;-64
2022/03/03 10:31:56;;;;;;;14.90;11.20;;;9.20;50.10;;;;;;5046566;28;20063;-63
2022/03/03 10:34:32;;;;;;;14.00;11.15;;;9.30;49.60;;;;;;5046520;28;20071;-63
2022/03/03 10:37:04;;;;;;;15.90;11.82;;;9.40;49.50;;;;;;5049652;28;20479;-65
2022/03/03 10:39:48;;;;;;;16.20;10.90;;;9.50;49.40;;;;;;5050401;28;20562;-64
2022/03/03 10:42:19;;;;;;;14.05;11.00;;;9.70;49.30;;;;;;5047691;28;20107;-63
2022/03/03 10:44:46;;;;;;;13.80;10.68;;;9.80;48.90;;;;;;5049574;28;20032;-63
2022/03/03 10:47:16;;;;;;;12.85;9.85;;;9.90;48.50;;;;;;5049824;28;20472;-63
2022/03/03 10:49:44;;;;;;;10.82;9.32;;;10.00;48.30;;;;;;5049515;28;20021;-63
2022/03/03 10:52:14;;;;;;;13.27;10.35;;;10.20;48.10;;;;;;5049141;28;20044;-63
2022/03/03 10:54:52;;;;;;;12.90;10.65;;;10.30;47.60;;;;;;5049195;28;20499;-63
2022/03/03 10:57:38;;;;;;;14.52;10.32;;;10.40;47.30;;;;;;5048050;28;20502;-64
2022/03/03 11:00:15;;;;;;;13.07;10.27;;;10.50;47.10;;;;;;5049360;28;20108;-63
2022/03/03 11:02:44;;;;;;;11.82;10.05;;;10.60;46.90;;;;;;5048008;28;20032;-64
2022/03/03 11:05:11;;;;;;;12.27;10.50;;;10.70;47.20;;;;;;5034039;28;20116;-64
2022/03/03 11:07:40;;;;;;;14.55;10.70;;;10.90;46.90;;;;;;5044191;28;20060;-64
2022/03/03 11:10:07;;;;;;;12.13;10.20;;;11.00;46.70;;;;;;5033831;28;20025;-64
2022/03/03 11:12:33;;;;;;;13.20;10.68;;;11.10;46.40;;;;;;5032823;28;20477;-64
2022/03/03 11:15:00;;;;;;;12.77;10.20;;;11.20;46.00;;;;;;5030399;28;20358;-64
2022/03/03 11:17:26;;;;;;;12.65;10.32;;;11.20;45.70;;;;;;5030972;28;20017;-64
2022/03/03 11:19:52;;;;;;;13.77;9.80;;;11.40;45.80;;;;;;5043152;28;20025;-65
2022/03/03 11:22:18;;;;;;;15.05;11.20;;;11.50;45.80;;;;;;5032687;28;20056;-64
2022/03/03 11:24:45;;;;;;;11.93;9.07;;;11.60;45.10;;;;;;5027918;28;20018;-64
2022/03/03 11:27:11;;;;;;;14.18;9.95;;;11.70;44.90;;;;;;5031089;28;20500;-63
2022/03/03 11:29:40;;;;;;;13.82;10.18;;;11.80;44.60;;;;;;5043959;28;20028;-64
2022/03/03 11:32:31;;;;;;;12.70;10.25;;;11.80;43.80;;;;;;5071811;27;1341985;-63
2022/03/03 11:35:07;;;;;;;11.48;10.10;;;11.90;43.90;;;;;;5101267;28;20039;-62
2022/03/03 11:37:39;;;;;;;12.15;10.65;;;11.90;43.70;;;;;;5105934;28;20035;-63
2022/03/03 11:40:05;;;;;;;12.77;9.75;;;12.10;43.70;;;;;;5105639;28;20034;-63
2022/03/03 11:42:34;;;;;;;13.63;9.68;;;12.20;43.60;;;;;;5105482;28;20020;-62
2022/03/03 11:49:37;;;;;;;13.15;9.75;;;12.40;42.60;;;;;;5127678;27;20131;-63
2022/03/03 11:52:08;;;;;;;13.52;10.55;;;12.40;43.20;;;;;;5107840;28;20023;-63
2022/03/03 11:54:34;;;;;;;11.93;10.05;;;12.50;42.90;;;;;;5127702;28;20031;-62
2022/03/03 11:57:03;;;;;;;13.65;11.13;;;12.60;42.60;;;;;;5126563;28;20020;-62
2022/03/03 11:59:47;;;;;;;13.73;10.30;;;12.70;42.50;;;;;;5127287;28;20035;-62
2022/03/03 12:02:16;;;;;;;10.93;9.55;;;12.80;42.70;;;;;;5126816;28;20028;-62
2022/03/03 12:04:42;;;;;;;12.68;10.50;;;13.00;42.00;;;;;;5127291;28;20058;-63
2022/03/03 12:07:28;;;;;;;11.07;9.85;;;13.10;41.50;;;;;;5108818;28;20027;-63
2022/03/03 12:09:56;;;;;;;13.10;8.95;;;13.20;41.30;;;;;;5126356;28;20031;-63
2022/03/03 12:12:28;;;;;;;11.70;10.35;;;13.30;40.90;;;;;;5108812;28;20522;-63
2022/03/03 12:14:57;;;;;;;11.87;9.43;;;13.30;40.00;;;;;;5127321;28;20516;-63
2022/03/03 12:21:50;;;;;;;13.50;10.00;;;13.50;39.10;;;;;;5038672;27;1998653;-63
2022/03/03 12:24:27;;;;;;;10.98;9.63;;;13.40;39.10;;;;;;5066441;28;20033;-64
2022/03/03 12:26:56;;;;;;;12.80;10.40;;;13.50;39.30;;;;;;5047893;28;20402;-64
2022/03/03 12:29:52;;;;;;;11.05;9.23;;;13.60;39.10;;;;;;5066627;28;20025;-64
2022/03/03 12:32:24;;;;;;;10.80;8.98;;;13.70;38.60;;;;;;5065903;28;20387;-64
2022/03/03 12:34:51;;;;;;;11.35;8.98;;;13.80;37.70;;;;;;5066561;28;20580;-63
2022/03/03 12:37:17;;;;;;;11.05;8.55;;;13.90;37.00;;;;;;5047955;28;20017;-63
2022/03/03 12:39:54;;;;;;;10.75;9.65;;;14.00;37.00;;;;;;5066135;28;20613;-63
2022/03/03 12:42:23;;;;;;;10.00;8.82;;;14.00;36.20;;;;;;5065980;28;20021;-63
2022/03/03 12:44:56;;;;;;;10.68;9.25;;;14.10;36.20;;;;;;5065937;28;20028;-63
2022/03/03 12:47:32;;;;;;;12.13;9.70;;;14.20;36.30;;;;;;5065999;28;20399;-63
2022/03/03 12:50:06;;;;;;;9.98;8.88;;;14.20;36.00;;;;;;5065554;28;20032;-63
2022/03/03 12:52:33;;;;;;;9.93;8.93;;;14.30;36.10;;;;;;5047986;28;20136;-63